Time;durP1;ratioP1;P1;durP2;ratioP2;P2;SDS_P1;SDS_P2;PMS_P1;PMS_P2;Temp;Humidity;BMP_temperature;BMP_pressure;BME280_temperature;BME280_humidity;BME280_pressure;Samples;Min_cycle;Max_cycle;Signal;HPM_P1;HPM_P2
2021/04/22 00:01:35;;;;;;;19.83;16.47;;;14.40;99.90;;;;;;5008857;28;20851;-71
2021/04/22 00:04:01;;;;;;;18.13;16.23;;;14.40;99.90;;;;;;4995404;28;20184;-73
2021/04/22 00:06:27;;;;;;;17.77;15.80;;;14.30;99.90;;;;;;4998739;28;20468;-71
2021/04/22 00:08:54;;;;;;;18.23;16.40;;;14.30;99.90;;;;;;4998497;28;20592;-71
2021/04/22 00:11:19;;;;;;;21.47;16.57;;;14.30;99.90;;;;;;5000639;28;20440;-72
2021/04/22 00:13:45;;;;;;;20.27;16.67;;;14.30;99.90;;;;;;5003963;28;20962;-72
2021/04/22 00:16:12;;;;;;;19.60;16.00;;;14.30;99.90;;;;;;5012361;28;20595;-71
2021/04/22 00:18:37;;;;;;;20.70;17.53;;;14.20;99.90;;;;;;5002766;28;20502;-71
2021/04/22 00:21:03;;;;;;;22.00;17.30;;;14.20;99.90;;;;;;5011664;28;20469;-71
2021/04/22 00:23:29;;;;;;;22.87;18.20;;;14.20;99.90;;;;;;5016398;28;20180;-71
2021/04/22 00:25:55;;;;;;;24.03;17.73;;;14.10;99.90;;;;;;5008139;28;20471;-71
2021/04/22 00:28:21;;;;;;;21.30;17.13;;;14.10;99.90;;;;;;5008957;28;20220;-69
2021/04/22 00:30:47;;;;;;;24.50;20.07;;;14.10;99.90;;;;;;5014198;28;20230;-71
2021/04/22 00:33:17;;;;;;;26.10;19.50;;;14.00;99.90;;;;;;5003934;28;20455;-73
2021/04/22 00:35:43;;;;;;;27.83;18.30;;;14.00;99.90;;;;;;5011287;28;20431;-71
2021/04/22 00:38:09;;;;;;;23.27;19.53;;;14.00;99.90;;;;;;5009000;28;20452;-71
2021/04/22 00:40:37;;;;;;;25.43;18.70;;;13.90;99.90;;;;;;5006980;28;20481;-70
2021/04/22 00:43:05;;;;;;;23.87;20.00;;;13.90;99.90;;;;;;5011697;28;20448;-69
2021/04/22 00:45:32;;;;;;;24.27;20.27;;;13.80;99.90;;;;;;5004956;28;20505;-70
2021/04/22 00:47:58;;;;;;;29.30;21.40;;;13.80;99.90;;;;;;5003949;28;20475;-71
2021/04/22 00:50:33;;;;;;;29.40;21.23;;;13.80;99.90;;;;;;5012057;28;20546;-71
2021/04/22 00:53:00;;;;;;;23.70;19.67;;;13.80;99.90;;;;;;5008228;28;20192;-71
2021/04/22 00:55:26;;;;;;;25.67;20.23;;;13.80;99.90;;;;;;5016239;28;20427;-72
2021/04/22 00:57:52;;;;;;;26.00;19.57;;;13.80;99.90;;;;;;5008261;28;20578;-71
2021/04/22 01:00:24;;;;;;;26.40;20.83;;;13.70;99.90;;;;;;5009979;28;20458;-71
2021/04/22 01:02:50;;;;;;;29.87;21.60;;;13.80;99.90;;;;;;5006060;28;20483;-73
2021/04/22 01:05:22;;;;;;;27.80;20.53;;;13.80;99.90;;;;;;5012491;28;20441;-70
2021/04/22 01:07:48;;;;;;;25.50;19.80;;;13.70;99.90;;;;;;4999942;28;20479;-73
2021/04/22 01:10:18;;;;;;;28.77;20.53;;;13.80;99.90;;;;;;5008354;28;20439;-70
2021/04/22 01:12:45;;;;;;;22.90;19.40;;;13.70;99.90;;;;;;5003104;28;20195;-72
2021/04/22 01:15:17;;;;;;;25.80;21.10;;;13.70;99.90;;;;;;5002080;28;20486;-71
2021/04/22 01:17:44;;;;;;;27.53;20.53;;;13.60;99.90;;;;;;5013421;28;20458;-72
2021/04/22 01:20:13;;;;;;;25.77;19.47;;;13.60;99.90;;;;;;5000076;28;20467;-71
2021/04/22 01:22:39;;;;;;;31.83;20.00;;;13.60;99.90;;;;;;5006367;28;20539;-71
2021/04/22 01:25:07;;;;;;;22.23;19.60;;;13.60;99.90;;;;;;5001481;28;21013;-70
2021/04/22 01:27:33;;;;;;;24.37;19.60;;;13.60;99.90;;;;;;5008562;28;20514;-71
2021/04/22 01:29:59;;;;;;;24.80;20.27;;;13.50;99.90;;;;;;5007329;28;20432;-72
2021/04/22 01:32:25;;;;;;;24.00;19.60;;;13.50;99.90;;;;;;5004011;28;20899;-73
2021/04/22 01:34:50;;;;;;;25.60;20.13;;;13.50;99.90;;;;;;5005467;28;20189;-73
2021/04/22 01:37:16;;;;;;;27.57;19.90;;;13.50;99.90;;;;;;5009456;28;20216;-72
2021/04/22 01:39:42;;;;;;;27.63;18.97;;;13.50;99.90;;;;;;5003013;28;20184;-70
2021/04/22 01:42:07;;;;;;;28.47;20.80;;;13.50;99.90;;;;;;5007195;28;20188;-72
2021/04/22 01:44:34;;;;;;;24.80;20.67;;;13.50;99.90;;;;;;5003889;28;20708;-71
2021/04/22 01:46:59;;;;;;;27.23;20.80;;;13.50;99.90;;;;;;5005202;28;20212;-71
2021/04/22 01:49:25;;;;;;;29.73;20.17;;;13.50;99.90;;;;;;5009524;28;20443;-71
2021/04/22 01:51:50;;;;;;;29.63;21.57;;;13.50;99.90;;;;;;5005595;28;20178;-70
2021/04/22 01:54:16;;;;;;;27.67;21.03;;;13.50;99.90;;;;;;5011164;28;20185;-71
2021/04/22 01:56:41;;;;;;;27.37;20.30;;;13.40;99.90;;;;;;5006665;28;20212;-71
2021/04/22 01:59:07;;;;;;;26.37;20.40;;;13.40;99.90;;;;;;5008997;28;20213;-71
2021/04/22 02:01:33;;;;;;;30.67;21.00;;;13.40;99.90;;;;;;5000964;28;20197;-71
2021/04/22 02:03:58;;;;;;;26.27;21.17;;;13.30;99.90;;;;;;5009751;28;20196;-71
2021/04/22 02:06:24;;;;;;;29.93;18.97;;;13.30;99.90;;;;;;5010252;28;20719;-69
2021/04/22 02:08:49;;;;;;;25.73;20.70;;;13.30;99.90;;;;;;5009403;28;20644;-72
2021/04/22 02:11:15;;;;;;;27.97;20.20;;;13.20;99.90;;;;;;5002815;28;20193;-71
2021/04/22 02:13:41;;;;;;;30.33;20.27;;;13.10;99.90;;;;;;4996558;28;20185;-71
2021/04/22 02:16:06;;;;;;;28.03;20.00;;;13.10;99.90;;;;;;5007280;28;20264;-70
2021/04/22 02:18:32;;;;;;;30.30;20.40;;;13.10;99.90;;;;;;5004297;28;20201;-71
2021/04/22 02:20:58;;;;;;;28.83;21.33;;;13.00;99.90;;;;;;5004115;28;20195;-71
2021/04/22 02:23:25;;;;;;;22.67;19.57;;;13.00;99.90;;;;;;4999814;28;20901;-71
2021/04/22 02:25:51;;;;;;;26.63;20.43;;;12.90;99.90;;;;;;4999544;28;20228;-72
2021/04/22 02:28:20;;;;;;;26.67;19.83;;;12.90;99.90;;;;;;5004666;28;20452;-71
2021/04/22 02:30:46;;;;;;;25.97;21.20;;;12.80;99.90;;;;;;5003750;28;20178;-72
2021/04/22 02:33:17;;;;;;;25.80;19.83;;;12.80;99.90;;;;;;5003121;28;20436;-71
2021/04/22 02:35:45;;;;;;;28.00;20.73;;;12.70;99.90;;;;;;5004481;28;20481;-72
2021/04/22 02:38:12;;;;;;;28.93;21.93;;;12.60;99.90;;;;;;5001508;28;20598;-72
2021/04/22 02:40:41;;;;;;;26.60;20.50;;;12.60;99.90;;;;;;5004253;28;20954;-72
2021/04/22 02:43:09;;;;;;;28.37;20.80;;;12.50;99.90;;;;;;5004454;28;21085;-72
2021/04/22 02:45:41;;;;;;;26.67;21.03;;;12.50;99.90;;;;;;5001503;28;20432;-72
2021/04/22 02:48:08;;;;;;;29.37;20.20;;;12.50;99.90;;;;;;5001065;28;20782;-71
2021/04/22 02:50:36;;;;;;;28.43;19.73;;;12.50;99.90;;;;;;5002253;28;20443;-71
2021/04/22 02:53:04;;;;;;;26.93;20.50;;;12.40;99.90;;;;;;5000269;28;20519;-70
2021/04/22 02:55:29;;;;;;;26.40;20.50;;;12.40;99.90;;;;;;4998853;28;20460;-72
2021/04/22 02:57:55;;;;;;;26.93;20.00;;;12.30;99.90;;;;;;4997872;28;20570;-73
2021/04/22 03:00:22;;;;;;;23.53;18.83;;;12.30;99.90;;;;;;5002511;28;20227;-71
2021/04/22 03:02:49;;;;;;;26.53;19.60;;;12.30;99.90;;;;;;5006811;28;20595;-71
2021/04/22 03:05:16;;;;;;;25.73;21.27;;;12.30;99.90;;;;;;5003549;28;22213;-72
2021/04/22 03:07:42;;;;;;;30.27;20.67;;;12.20;99.90;;;;;;4997974;28;20999;-72
2021/04/22 03:10:10;;;;;;;29.67;21.77;;;12.30;99.90;;;;;;5010526;28;20442;-71
2021/04/22 03:12:36;;;;;;;28.30;21.13;;;12.20;99.90;;;;;;5008447;28;20226;-73
2021/04/22 03:15:04;;;;;;;25.87;20.37;;;12.20;99.90;;;;;;5011382;28;20444;-71
2021/04/22 03:17:30;;;;;;;28.63;19.23;;;12.10;99.90;;;;;;4998909;28;20232;-70
2021/04/22 03:19:55;;;;;;;22.90;17.97;;;12.10;99.90;;;;;;5002228;28;20530;-71
2021/04/22 03:22:21;;;;;;;26.10;19.70;;;12.00;99.90;;;;;;5001652;28;20523;-73
2021/04/22 03:24:47;;;;;;;25.00;19.70;;;12.00;99.90;;;;;;5001311;28;20577;-73
2021/04/22 03:27:13;;;;;;;29.37;20.00;;;11.90;99.90;;;;;;4997830;28;20224;-70
2021/04/22 03:29:38;;;;;;;27.20;20.40;;;11.90;99.90;;;;;;4999889;28;20200;-71
2021/04/22 03:32:04;;;;;;;26.10;19.53;;;11.90;99.90;;;;;;5000115;28;20537;-71
2021/04/22 03:34:30;;;;;;;32.43;22.10;;;11.90;99.90;;;;;;4998864;28;20189;-71
2021/04/22 03:36:56;;;;;;;25.30;19.70;;;11.90;99.90;;;;;;5004309;28;20571;-71
2021/04/22 03:39:24;;;;;;;26.00;19.90;;;11.80;99.90;;;;;;5003139;28;20212;-72
2021/04/22 03:41:50;;;;;;;26.20;19.73;;;11.90;99.90;;;;;;5004966;28;20197;-72
2021/04/22 03:44:16;;;;;;;27.40;19.70;;;11.80;99.90;;;;;;5000230;28;20541;-70
2021/04/22 03:46:41;;;;;;;28.03;19.23;;;11.80;99.90;;;;;;5009040;28;20296;-72
2021/04/22 03:49:07;;;;;;;29.47;19.67;;;11.80;99.90;;;;;;5000613;28;20285;-72
2021/04/22 03:51:33;;;;;;;27.93;19.40;;;11.80;99.90;;;;;;5002297;28;20895;-72
2021/04/22 03:53:59;;;;;;;25.57;18.77;;;11.80;99.90;;;;;;5001701;28;20185;-73
2021/04/22 03:56:25;;;;;;;27.50;18.43;;;11.70;99.90;;;;;;5011866;28;21189;-71
2021/04/22 03:58:50;;;;;;;29.67;20.20;;;11.70;99.90;;;;;;5012667;28;20196;-71
2021/04/22 04:01:16;;;;;;;28.60;19.00;;;11.70;99.90;;;;;;5015964;28;20435;-71
2021/04/22 04:03:41;;;;;;;29.00;19.27;;;11.60;99.90;;;;;;4998152;28;20682;-71
2021/04/22 04:06:07;;;;;;;29.20;20.80;;;11.60;99.90;;;;;;5000539;28;20364;-71
2021/04/22 04:08:32;;;;;;;28.23;19.43;;;11.60;99.90;;;;;;5002666;28;20200;-71
2021/04/22 04:10:59;;;;;;;35.00;19.97;;;11.60;99.90;;;;;;5003006;28;20627;-72
2021/04/22 04:13:25;;;;;;;26.00;18.80;;;11.60;99.90;;;;;;5001151;28;20276;-71
2021/04/22 04:15:50;;;;;;;27.37;18.37;;;11.60;99.90;;;;;;5005534;28;21025;-72
2021/04/22 04:18:20;;;;;;;33.83;21.10;;;11.50;99.90;;;;;;4997179;28;20856;-71
2021/04/22 04:20:45;;;;;;;24.30;19.37;;;11.50;99.90;;;;;;5004414;28;20193;-73
2021/04/22 04:23:12;;;;;;;26.80;18.43;;;11.50;99.90;;;;;;5003783;28;20471;-72
2021/04/22 04:25:37;;;;;;;29.90;20.23;;;11.50;99.90;;;;;;5000481;28;20848;-71
2021/04/22 04:28:03;;;;;;;26.13;19.97;;;11.50;99.90;;;;;;5003307;28;20459;-72
2021/04/22 04:30:29;;;;;;;28.20;18.37;;;11.40;99.90;;;;;;4997778;28;20204;-72
2021/04/22 04:32:55;;;;;;;25.03;18.40;;;11.40;99.90;;;;;;5005642;28;20177;-73
2021/04/22 04:35:21;;;;;;;23.20;17.23;;;11.40;99.90;;;;;;5004661;28;20458;-72
2021/04/22 04:37:46;;;;;;;22.63;18.23;;;11.40;99.90;;;;;;5006638;28;20329;-71
2021/04/22 04:40:14;;;;;;;27.20;18.97;;;11.40;99.90;;;;;;5005249;28;20189;-71
2021/04/22 04:42:40;;;;;;;28.20;17.93;;;11.40;99.90;;;;;;5000955;28;20223;-70
2021/04/22 04:45:12;;;;;;;22.63;16.43;;;11.30;99.90;;;;;;4999811;28;20444;-71
2021/04/22 04:47:38;;;;;;;21.80;16.67;;;11.30;99.90;;;;;;5000919;28;20763;-74
2021/04/22 04:50:06;;;;;;;24.97;16.53;;;11.30;99.90;;;;;;5002644;28;20836;-72
2021/04/22 04:52:32;;;;;;;22.13;14.87;;;11.30;99.90;;;;;;4996149;28;20496;-72
2021/04/22 04:54:57;;;;;;;25.30;16.00;;;11.20;99.90;;;;;;4997776;28;20566;-72
2021/04/22 04:57:23;;;;;;;27.40;15.97;;;11.20;99.90;;;;;;5002328;28;20216;-72
2021/04/22 04:59:49;;;;;;;23.03;16.20;;;11.30;99.90;;;;;;5003312;28;20190;-72
2021/04/22 05:02:14;;;;;;;19.97;14.23;;;11.20;99.90;;;;;;5005612;28;20758;-71
2021/04/22 05:04:40;;;;;;;31.43;15.50;;;11.20;99.90;;;;;;5012858;28;20193;-71
2021/04/22 05:07:05;;;;;;;25.13;14.70;;;11.20;99.90;;;;;;5002639;28;20220;-71
2021/04/22 05:09:31;;;;;;;20.50;13.63;;;11.20;99.90;;;;;;5011611;28;20188;-71
2021/04/22 05:11:57;;;;;;;20.13;14.60;;;11.20;99.90;;;;;;5001263;28;20182;-72
2021/04/22 05:14:23;;;;;;;24.73;13.23;;;11.20;99.90;;;;;;5000499;28;20234;-73
2021/04/22 05:16:49;;;;;;;20.17;13.00;;;11.30;99.90;;;;;;5000263;28;20617;-72
2021/04/22 05:19:14;;;;;;;19.20;12.73;;;11.20;99.90;;;;;;5014164;28;20267;-71
2021/04/22 05:21:40;;;;;;;20.60;12.30;;;11.20;99.90;;;;;;5016920;28;21272;-72
2021/04/22 05:24:06;;;;;;;15.60;12.10;;;11.20;99.90;;;;;;5018879;28;20690;-72
2021/04/22 05:26:31;;;;;;;15.23;11.80;;;11.20;99.90;;;;;;5014672;28;20946;-71
2021/04/22 05:28:57;;;;;;;21.73;12.50;;;11.20;99.90;;;;;;5018155;28;20432;-72
2021/04/22 05:31:23;;;;;;;15.73;11.00;;;11.20;99.90;;;;;;5008067;28;20193;-72
2021/04/22 05:33:49;;;;;;;18.53;12.10;;;11.20;99.90;;;;;;5015715;28;20259;-72
2021/04/22 05:36:15;;;;;;;19.63;12.10;;;11.20;99.90;;;;;;5014995;28;20436;-71
2021/04/22 05:38:41;;;;;;;19.13;11.10;;;11.20;99.90;;;;;;5015432;28;20224;-72
2021/04/22 05:41:06;;;;;;;18.20;11.17;;;11.20;99.90;;;;;;5020915;28;20475;-72
2021/04/22 05:43:32;;;;;;;16.77;10.97;;;11.20;99.90;;;;;;5019734;28;20695;-72
2021/04/22 05:45:59;;;;;;;13.97;9.50;;;11.20;99.90;;;;;;5016187;28;20585;-71
2021/04/22 05:48:25;;;;;;;14.90;10.20;;;11.20;99.90;;;;;;5002847;28;20248;-70
2021/04/22 05:50:51;;;;;;;12.47;8.80;;;11.20;99.90;;;;;;5014169;28;20447;-70
2021/04/22 05:53:16;;;;;;;19.60;9.60;;;11.20;99.90;;;;;;5012047;28;20198;-73
2021/04/22 05:55:43;;;;;;;15.40;9.70;;;11.00;99.90;;;;;;5012751;28;20430;-72
2021/04/22 05:58:08;;;;;;;13.33;8.80;;;11.00;99.90;;;;;;5013650;28;20233;-72
2021/04/22 06:00:34;;;;;;;10.97;8.30;;;11.00;99.90;;;;;;5016600;28;20477;-72
2021/04/22 06:03:00;;;;;;;13.90;7.57;;;11.00;99.90;;;;;;5012374;28;20562;-71
2021/04/22 06:05:26;;;;;;;11.03;9.20;;;11.10;99.90;;;;;;5008660;28;20260;-70
2021/04/22 06:07:52;;;;;;;10.40;8.50;;;11.10;99.90;;;;;;5008678;28;20782;-71
2021/04/22 06:10:19;;;;;;;11.23;7.60;;;11.10;99.90;;;;;;5020959;28;20407;-71
2021/04/22 06:12:45;;;;;;;12.00;6.80;;;11.10;99.90;;;;;;5011468;28;20539;-73
2021/04/22 06:15:11;;;;;;;18.50;8.37;;;11.00;99.90;;;;;;5010667;28;21023;-71
2021/04/22 06:17:37;;;;;;;12.90;7.20;;;11.00;99.90;;;;;;5009985;28;20448;-73
2021/04/22 06:20:14;;;;;;;9.43;7.10;;;11.00;99.90;;;;;;5017553;28;20506;-71
2021/04/22 06:22:40;;;;;;;11.50;6.87;;;11.00;99.90;;;;;;4998517;28;20277;-71
2021/04/22 06:25:06;;;;;;;12.30;7.33;;;11.00;99.90;;;;;;5016204;28;20507;-71
2021/04/22 06:27:32;;;;;;;14.00;6.70;;;11.00;99.90;;;;;;5015951;28;20216;-73
2021/04/22 06:29:59;;;;;;;12.53;7.17;;;11.10;99.90;;;;;;5014808;28;20454;-71
2021/04/22 06:32:24;;;;;;;12.37;6.37;;;11.10;99.90;;;;;;5014196;28;20169;-72
2021/04/22 06:34:50;;;;;;;11.40;6.63;;;11.20;99.90;;;;;;5015502;28;20503;-71
2021/04/22 06:37:16;;;;;;;14.67;6.93;;;11.30;99.90;;;;;;5019710;28;20786;-71
2021/04/22 06:39:41;;;;;;;10.43;6.60;;;11.20;99.90;;;;;;5019073;28;20211;-73
2021/04/22 06:42:07;;;;;;;17.03;8.13;;;11.30;99.90;;;;;;5016315;28;20206;-72
2021/04/22 06:44:33;;;;;;;9.90;6.00;;;11.30;99.90;;;;;;5016773;28;20824;-72
2021/04/22 06:46:59;;;;;;;10.43;5.80;;;11.30;99.90;;;;;;5014123;28;20214;-73
2021/04/22 06:49:26;;;;;;;11.23;6.20;;;11.30;99.90;;;;;;5016771;28;20215;-71
2021/04/22 06:51:52;;;;;;;8.73;6.03;;;11.30;99.90;;;;;;5018567;28;20407;-72
2021/04/22 06:54:18;;;;;;;12.70;6.60;;;11.30;99.90;;;;;;5020940;28;20407;-72
2021/04/22 06:56:44;;;;;;;7.97;6.17;;;11.40;99.90;;;;;;5012466;28;20817;-72
2021/04/22 06:59:09;;;;;;;9.17;6.40;;;11.30;99.90;;;;;;5018445;28;20435;-71
2021/04/22 07:01:35;;;;;;;12.00;6.10;;;11.40;99.90;;;;;;5022757;28;20727;-72
2021/04/22 07:04:01;;;;;;;12.57;6.40;;;11.40;99.90;;;;;;5016031;28;20560;-72
2021/04/22 07:06:27;;;;;;;9.13;6.33;;;11.50;99.90;;;;;;5014604;28;20665;-71
2021/04/22 07:08:52;;;;;;;11.03;6.43;;;11.60;99.90;;;;;;5004805;28;20173;-72
2021/04/22 07:11:19;;;;;;;13.03;6.57;;;11.60;99.90;;;;;;5023358;28;20454;-73
2021/04/22 07:13:45;;;;;;;13.73;6.60;;;11.60;99.90;;;;;;5017601;28;20539;-71
2021/04/22 07:16:11;;;;;;;10.50;7.33;;;11.60;99.90;;;;;;5018510;28;20423;-73
2021/04/22 07:18:36;;;;;;;7.73;6.23;;;11.70;99.90;;;;;;5012676;28;20213;-72
2021/04/22 07:21:02;;;;;;;13.47;6.37;;;11.80;99.90;;;;;;5019330;28;20215;-71
2021/04/22 07:23:28;;;;;;;16.27;7.10;;;11.90;99.90;;;;;;5014951;28;20280;-70
2021/04/22 07:25:54;;;;;;;10.70;7.03;;;11.90;99.90;;;;;;5001016;28;20509;-72
2021/04/22 07:28:20;;;;;;;13.90;6.57;;;12.00;99.90;;;;;;5011583;28;20267;-72
2021/04/22 07:30:46;;;;;;;12.00;6.10;;;12.00;99.90;;;;;;5009863;28;20712;-72
2021/04/22 07:33:13;;;;;;;13.80;6.60;;;12.10;99.90;;;;;;5011700;28;20467;-72
2021/04/22 07:35:39;;;;;;;7.80;6.07;;;12.20;99.90;;;;;;5009974;28;20567;-75
2021/04/22 07:38:07;;;;;;;10.00;6.47;;;12.20;99.90;;;;;;5011913;28;21019;-72
2021/04/22 07:40:33;;;;;;;11.90;6.40;;;12.20;99.90;;;;;;5012302;28;20439;-72
2021/04/22 07:42:58;;;;;;;11.60;5.80;;;12.20;99.90;;;;;;5009932;28;21048;-72
2021/04/22 07:45:31;;;;;;;10.50;6.90;;;12.20;99.90;;;;;;5012971;28;20610;-73
2021/04/22 07:47:57;;;;;;;7.77;6.17;;;12.20;99.90;;;;;;5008243;28;20251;-73
2021/04/22 07:50:23;;;;;;;12.30;6.37;;;12.30;99.90;;;;;;5010410;28;20454;-73
2021/04/22 07:52:49;;;;;;;11.10;6.00;;;12.40;99.90;;;;;;5014165;28;20526;-73
2021/04/22 07:55:19;;;;;;;7.33;6.43;;;12.40;99.90;;;;;;5008148;28;20436;-72
2021/04/22 07:57:45;;;;;;;11.20;6.17;;;12.50;99.90;;;;;;5012082;28;20485;-72
2021/04/22 08:00:14;;;;;;;8.50;5.70;;;12.40;99.90;;;;;;5015397;28;20428;-73
2021/04/22 08:02:41;;;;;;;5.87;5.30;;;12.60;99.90;;;;;;5011955;28;20219;-75
2021/04/22 08:05:09;;;;;;;15.33;6.60;;;12.70;99.90;;;;;;5012576;28;20943;-72
2021/04/22 08:07:35;;;;;;;10.73;6.47;;;12.70;99.90;;;;;;5015815;28;20573;-72
2021/04/22 08:10:01;;;;;;;11.47;6.37;;;12.80;99.90;;;;;;5012340;28;20475;-73
2021/04/22 08:12:27;;;;;;;7.97;5.67;;;12.70;99.90;;;;;;5008074;28;20440;-70
2021/04/22 08:14:57;;;;;;;6.57;5.97;;;12.80;99.90;;;;;;4991890;28;20660;-71
2021/04/22 08:17:22;;;;;;;11.83;6.03;;;12.80;99.90;;;;;;5002668;28;20213;-71
2021/04/22 08:19:48;;;;;;;14.00;6.70;;;12.90;99.90;;;;;;5007427;28;20444;-71
2021/04/22 08:22:14;;;;;;;13.10;6.23;;;13.00;99.90;;;;;;5003521;28;20196;-72
2021/04/22 08:24:39;;;;;;;9.60;5.80;;;13.10;99.90;;;;;;5002023;28;20185;-71
2021/04/22 08:27:05;;;;;;;8.33;5.87;;;13.10;99.90;;;;;;5008021;28;20273;-72
2021/04/22 08:29:31;;;;;;;8.20;6.03;;;13.30;99.90;;;;;;5007501;28;20932;-71
2021/04/22 08:31:56;;;;;;;7.80;6.17;;;13.20;99.90;;;;;;5005811;28;20455;-71
2021/04/22 08:34:25;;;;;;;7.10;5.97;;;13.30;99.90;;;;;;5011136;28;20247;-72
2021/04/22 08:36:50;;;;;;;6.77;5.77;;;13.40;99.90;;;;;;5012729;28;20216;-72
2021/04/22 08:39:17;;;;;;;7.90;6.33;;;13.30;99.90;;;;;;5012237;28;20456;-71
2021/04/22 08:41:43;;;;;;;7.37;6.30;;;13.50;99.90;;;;;;5012001;28;20198;-74
2021/04/22 08:44:09;;;;;;;10.43;5.77;;;13.60;99.90;;;;;;5012802;28;20447;-72
2021/04/22 08:46:38;;;;;;;8.70;5.40;;;13.60;99.90;;;;;;5008422;28;21221;-71
2021/04/22 08:49:04;;;;;;;6.70;5.50;;;13.70;98.90;;;;;;5009023;28;20184;-72
2021/04/22 08:51:30;;;;;;;6.77;6.00;;;13.80;98.10;;;;;;5008444;28;20497;-72
2021/04/22 08:53:56;;;;;;;8.40;5.37;;;14.00;97.70;;;;;;5011007;28;20190;-72
2021/04/22 08:56:22;;;;;;;8.47;5.67;;;14.00;96.40;;;;;;5012861;28;20473;-70
2021/04/22 08:58:49;;;;;;;9.20;6.27;;;14.10;96.20;;;;;;5012140;28;20192;-71
2021/04/22 09:01:17;;;;;;;7.77;5.63;;;14.30;96.50;;;;;;5014314;28;20446;-74
2021/04/22 09:03:46;;;;;;;7.77;5.20;;;14.40;93.60;;;;;;5010880;28;20527;-72
2021/04/22 09:06:12;;;;;;;7.47;5.00;;;14.60;92.90;;;;;;5010960;28;20476;-71
2021/04/22 09:08:51;;;;;;;10.23;5.80;;;14.70;90.50;;;;;;5007958;28;20542;-73
2021/04/22 09:11:23;;;;;;;8.93;5.40;;;14.90;89.60;;;;;;5011672;28;20446;-70
2021/04/22 09:13:50;;;;;;;11.53;5.90;;;15.00;86.10;;;;;;5013089;28;20434;-70
2021/04/22 09:16:18;;;;;;;9.60;4.63;;;15.10;86.20;;;;;;5010129;28;20526;-72
2021/04/22 09:18:46;;;;;;;6.23;4.47;;;15.40;85.60;;;;;;5012154;28;20444;-72
2021/04/22 09:21:27;;;;;;;5.57;4.00;;;15.50;79.20;;;;;;5011361;28;20451;-71
2021/04/22 09:24:13;;;;;;;7.43;4.90;;;15.70;77.20;;;;;;5008483;28;20462;-71
2021/04/22 09:26:43;;;;;;;6.97;4.60;;;16.00;76.30;;;;;;5010732;28;20467;-71
2021/04/22 09:29:14;;;;;;;7.57;5.40;;;16.30;71.60;;;;;;5016761;28;20431;-71
2021/04/22 09:31:41;;;;;;;5.00;4.50;;;16.80;68.90;;;;;;5016139;28;20446;-69
2021/04/22 09:34:15;;;;;;;7.73;4.40;;;17.40;66.40;;;;;;5011656;28;20431;-70
2021/04/22 09:36:50;;;;;;;7.70;4.20;;;18.20;65.30;;;;;;5016663;28;20452;-70
2021/04/22 09:39:20;;;;;;;8.80;5.00;;;19.00;58.30;;;;;;5015953;28;20427;-71
2021/04/22 09:41:47;;;;;;;5.33;3.90;;;19.90;54.10;;;;;;5011611;28;20424;-73
2021/04/22 09:44:14;;;;;;;5.77;4.60;;;20.10;52.20;;;;;;5014092;28;20435;-71
2021/04/22 09:46:44;;;;;;;7.27;6.20;;;21.00;53.50;;;;;;5014487;28;20966;-72
2021/04/22 09:49:20;;;;;;;5.60;4.70;;;21.70;47.60;;;;;;5016185;28;20430;-70
2021/04/22 09:51:49;;;;;;;8.33;6.27;;;22.30;44.50;;;;;;5013573;28;20537;-71
2021/04/22 09:54:18;;;;;;;6.67;4.87;;;23.30;44.90;;;;;;5016583;28;20505;-71
2021/04/22 09:56:49;;;;;;;5.87;4.80;;;23.90;41.20;;;;;;5016783;28;20454;-71
2021/04/22 09:59:19;;;;;;;6.00;4.87;;;23.30;38.20;;;;;;5014464;28;20802;-71
2021/04/22 10:01:58;;;;;;;6.33;5.27;;;23.10;38.90;;;;;;5013011;28;20807;-72
2021/04/22 10:04:31;;;;;;;7.00;4.60;;;23.40;38.60;;;;;;5015304;28;20416;-71
2021/04/22 10:06:56;;;;;;;8.80;4.40;;;23.00;37.70;;;;;;5014377;28;20479;-71
2021/04/22 10:09:38;;;;;;;7.33;4.20;;;22.20;38.10;;;;;;5022502;28;20941;-71
2021/04/22 10:12:07;;;;;;;6.37;4.07;;;22.20;38.80;;;;;;5013643;28;20184;-73
2021/04/22 10:14:36;;;;;;;11.73;4.70;;;22.00;39.00;;;;;;5013663;28;20432;-71
2021/04/22 10:17:20;;;;;;;11.00;4.90;;;21.70;37.20;;;;;;5013648;28;20526;-72
2021/04/22 10:20:02;;;;;;;5.07;4.43;;;21.60;37.60;;;;;;5012719;28;20494;-73
2021/04/22 10:22:36;;;;;;;6.77;4.63;;;21.70;38.40;;;;;;5016357;28;21313;-72
2021/04/22 10:25:06;;;;;;;11.27;4.80;;;21.90;38.50;;;;;;5013445;28;20424;-71
2021/04/22 10:27:32;;;;;;;8.27;4.23;;;22.20;39.10;;;;;;5014333;28;21170;-71
2021/04/22 10:29:58;;;;;;;13.77;5.00;;;22.30;38.00;;;;;;5013744;28;20430;-72
2021/04/22 10:32:25;;;;;;;5.30;4.30;;;22.40;38.90;;;;;;5011386;28;20192;-71
2021/04/22 10:34:51;;;;;;;6.03;4.07;;;22.30;37.60;;;;;;5017372;28;20427;-71
2021/04/22 10:37:22;;;;;;;10.43;5.23;;;22.10;36.40;;;;;;5014400;28;20467;-71
2021/04/22 10:39:50;;;;;;;10.40;5.07;;;21.80;36.00;;;;;;5015645;28;20460;-71
2021/04/22 10:42:17;;;;;;;6.00;5.07;;;21.60;36.60;;;;;;5020520;28;20450;-72
2021/04/22 10:44:48;;;;;;;6.23;5.53;;;21.30;36.90;;;;;;5019967;28;21110;-71
2021/04/22 10:47:16;;;;;;;5.40;4.30;;;21.30;37.70;;;;;;5013343;28;20515;-71
2021/04/22 10:49:42;;;;;;;7.73;5.07;;;21.20;36.30;;;;;;5016945;28;20529;-71
2021/04/22 10:52:08;;;;;;;6.73;5.37;;;21.00;36.30;;;;;;5017407;28;20523;-70
2021/04/22 10:54:38;;;;;;;10.23;5.10;;;21.80;36.50;;;;;;5017728;28;20551;-71
2021/04/22 10:57:13;;;;;;;6.03;4.93;;;23.20;37.10;;;;;;5012666;28;21041;-71
2021/04/22 10:59:39;;;;;;;5.23;4.70;;;25.30;36.30;;;;;;5011933;28;21121;-72
2021/04/22 11:02:18;;;;;;;5.20;4.70;;;25.80;33.40;;;;;;5013320;28;20440;-72
2021/04/22 11:04:48;;;;;;;8.67;5.07;;;26.20;32.90;;;;;;5011893;28;20524;-72
2021/04/22 11:07:21;;;;;;;9.70;5.73;;;27.60;32.40;;;;;;5016270;28;20475;-72
2021/04/22 11:09:50;;;;;;;5.90;5.30;;;29.70;31.20;;;;;;5014545;28;20420;-72
2021/04/22 11:12:30;;;;;;;5.30;4.87;;;30.60;29.90;;;;;;5018429;28;20424;-73
2021/04/22 11:14:58;;;;;;;7.00;6.40;;;31.80;28.80;;;;;;5010127;28;20455;-72
2021/04/22 11:17:38;;;;;;;7.50;5.50;;;32.70;28.00;;;;;;5012646;28;20456;-72
2021/04/22 11:20:18;;;;;;;15.10;5.23;;;32.40;25.60;;;;;;5014768;28;20434;-71
2021/04/22 11:22:45;;;;;;;6.07;4.80;;;32.80;24.90;;;;;;5012895;28;21172;-71
2021/04/22 11:25:18;;;;;;;7.10;4.73;;;32.50;24.50;;;;;;5014813;28;20464;-72
2021/04/22 11:27:48;;;;;;;6.20;5.60;;;32.50;24.40;;;;;;5014899;28;20502;-69
2021/04/22 11:30:28;;;;;;;6.70;5.83;;;32.20;24.20;;;;;;5009944;28;20447;-72
2021/04/22 11:32:56;;;;;;;7.80;4.90;;;33.00;24.80;;;;;;5017318;28;20431;-71
2021/04/22 11:35:24;;;;;;;5.57;4.97;;;33.50;24.20;;;;;;5009186;28;20501;-72
2021/04/22 11:37:55;;;;;;;9.70;5.67;;;34.30;24.30;;;;;;5016670;28;20430;-72
2021/04/22 11:40:27;;;;;;;6.00;5.40;;;34.70;24.30;;;;;;5012954;28;20459;-71
2021/04/22 11:42:54;;;;;;;7.83;5.40;;;35.10;24.00;;;;;;5014165;28;20424;-70
2021/04/22 11:45:25;;;;;;;5.90;4.77;;;34.50;23.40;;;;;;5012035;28;20439;-71
2021/04/22 11:48:10;;;;;;;9.73;5.10;;;34.20;23.30;;;;;;5011727;28;20451;-73
2021/04/22 11:50:42;;;;;;;7.03;5.10;;;34.60;23.40;;;;;;5008525;28;20432;-71
2021/04/22 11:53:12;;;;;;;6.17;5.27;;;35.40;23.20;;;;;;5017043;28;20786;-72
2021/04/22 11:55:40;;;;;;;7.70;5.30;;;36.00;22.60;;;;;;5008348;28;20402;-71
2021/04/22 11:58:12;;;;;;;7.63;5.40;;;35.20;22.30;;;;;;5016850;28;20950;-71
2021/04/22 12:00:53;;;;;;;7.80;6.33;;;34.50;22.70;;;;;;5013624;28;20480;-71
2021/04/22 12:03:39;;;;;;;8.77;7.87;;;34.20;21.70;;;;;;5012210;28;20445;-71
2021/04/22 12:06:16;;;;;;;5.30;4.90;;;33.80;22.50;;;;;;5015638;28;20442;-71
2021/04/22 12:08:45;;;;;;;7.57;5.10;;;34.00;22.20;;;;;;5015096;28;20549;-70
2021/04/22 12:11:16;;;;;;;6.30;5.30;;;34.00;21.60;;;;;;5021419;28;20394;-71
2021/04/22 12:13:42;;;;;;;6.57;5.07;;;33.40;21.30;;;;;;5014200;28;20440;-71
2021/04/22 12:16:08;;;;;;;6.20;4.80;;;32.50;20.70;;;;;;5016074;28;20605;-70
2021/04/22 12:18:39;;;;;;;5.83;5.00;;;32.50;20.90;;;;;;5015685;28;20218;-71
2021/04/22 12:21:11;;;;;;;8.43;5.70;;;33.30;20.80;;;;;;5014852;28;20467;-73
2021/04/22 12:23:40;;;;;;;6.97;5.40;;;33.20;20.60;;;;;;5015656;28;20398;-72
2021/04/22 12:26:30;;;;;;;4.97;4.40;;;33.50;20.70;;;;;;5013872;28;20507;-71
2021/04/22 12:29:04;;;;;;;7.57;5.73;;;33.40;20.80;;;;;;5017445;28;20424;-71
2021/04/22 12:31:29;;;;;;;6.13;5.63;;;33.00;20.80;;;;;;5021465;28;20439;-71
2021/04/22 12:33:58;;;;;;;7.87;5.70;;;32.40;21.10;;;;;;5014438;28;20398;-71
2021/04/22 12:36:24;;;;;;;7.07;5.20;;;31.80;21.10;;;;;;5015423;28;20212;-72
2021/04/22 12:38:50;;;;;;;5.30;4.90;;;32.10;21.10;;;;;;5014451;28;20826;-72